createdAt,value
2023-09-17T00:01:55.695Z,14.93
2023-09-17T00:04:22.904Z,14.88
2023-09-17T00:06:49.861Z,14.92
2023-09-17T00:09:16.902Z,14.88
2023-09-17T00:11:43.918Z,14.87
2023-09-17T00:14:11.084Z,14.91
2023-09-17T00:16:38.300Z,14.93
2023-09-17T00:19:05.490Z,14.73
2023-09-17T00:21:32.478Z,14.82
2023-09-17T00:23:59.418Z,14.61
2023-09-17T00:26:26.354Z,14.54
2023-09-17T00:28:53.249Z,14.54
2023-09-17T00:31:20.281Z,14.52
2023-09-17T00:33:47.379Z,14.47
2023-09-17T00:36:14.365Z,14.54
2023-09-17T00:38:41.386Z,14.48
2023-09-17T00:41:08.330Z,14.42
2023-09-17T00:43:35.302Z,14.38
2023-09-17T00:46:02.466Z,14.45
2023-09-17T00:48:29.586Z,14.34
2023-09-17T00:50:56.536Z,14.25
2023-09-17T00:53:23.684Z,14.23
2023-09-17T00:55:50.891Z,14.18
2023-09-17T00:58:17.909Z,14.16
2023-09-17T01:00:45.232Z,14.19
2023-09-17T01:03:12.584Z,14.20
2023-09-17T01:05:47.236Z,14.19
2023-09-17T01:08:14.494Z,14.15
2023-09-17T01:10:41.733Z,14.17
2023-09-17T01:13:09.617Z,14.17
2023-09-17T01:15:36.986Z,14.19
2023-09-17T01:18:05.190Z,14.15
2023-09-17T01:20:40.152Z,14.10
2023-09-17T01:23:42.111Z,14.13
2023-09-17T01:26:17.061Z,14.20
2023-09-17T01:28:44.459Z,14.31
2023-09-17T01:31:11.441Z,14.19
2023-09-17T01:33:38.542Z,14.11
2023-09-17T01:36:12.334Z,14.11
2023-09-17T01:38:45.086Z,14.01
2023-09-17T01:41:12.163Z,14.01
2023-09-17T01:43:39.864Z,14.03
2023-09-17T01:46:07.593Z,14.01
2023-09-17T01:48:35.917Z,14.02
2023-09-17T01:51:05.181Z,13.91
2023-09-17T01:53:33.513Z,13.83
2023-09-17T01:56:00.851Z,13.87
2023-09-17T01:58:27.880Z,13.90
2023-09-17T02:00:54.856Z,13.85
2023-09-17T02:03:21.879Z,13.87
2023-09-17T02:05:48.908Z,13.81
2023-09-17T02:08:15.931Z,13.80
2023-09-17T02:10:42.926Z,13.82
2023-09-17T02:13:09.818Z,13.89
2023-09-17T02:15:36.877Z,13.89
2023-09-17T02:18:04.028Z,13.81
2023-09-17T02:20:30.986Z,13.81
2023-09-17T02:22:58.073Z,13.80
2023-09-17T02:25:25.035Z,13.70
2023-09-17T02:27:52.011Z,13.71
2023-09-17T02:30:18.996Z,13.68
2023-09-17T02:32:45.897Z,13.63
2023-09-17T02:35:12.837Z,13.63
2023-09-17T02:37:39.897Z,13.67
2023-09-17T02:40:07.372Z,13.59
2023-09-17T02:42:34.285Z,13.62
2023-09-17T02:45:01.234Z,13.70
2023-09-17T02:47:28.363Z,13.67
2023-09-17T02:49:55.438Z,13.63
2023-09-17T02:52:22.528Z,13.64
2023-09-17T02:54:49.395Z,13.67
2023-09-17T02:57:16.295Z,13.62
2023-09-17T02:59:43.196Z,13.58
2023-09-17T03:02:10.150Z,13.53
2023-09-17T03:04:37.167Z,13.44
2023-09-17T03:07:04.372Z,13.42
2023-09-17T03:09:31.775Z,13.47
2023-09-17T03:11:58.701Z,13.43
2023-09-17T03:14:25.633Z,13.46
2023-09-17T03:16:52.650Z,13.47
2023-09-17T03:19:19.653Z,13.39
2023-09-17T03:21:46.785Z,13.44
2023-09-17T03:24:13.688Z,13.30
2023-09-17T03:26:40.605Z,13.16
2023-09-17T03:29:07.654Z,13.08
2023-09-17T03:31:35.788Z,12.97
2023-09-17T03:34:02.740Z,12.94
2023-09-17T03:36:29.689Z,13.03
2023-09-17T03:38:56.642Z,13.03
2023-09-17T03:41:23.655Z,13.12
2023-09-17T03:43:50.845Z,13.25
2023-09-17T03:46:17.974Z,13.21
2023-09-17T03:48:44.956Z,13.31
2023-09-17T03:51:12.096Z,13.27
2023-09-17T03:53:39.279Z,13.21
2023-09-17T03:56:06.307Z,13.27
2023-09-17T03:58:33.307Z,13.36
2023-09-17T04:01:00.244Z,13.53
2023-09-17T04:03:27.166Z,13.79
2023-09-17T04:05:54.118Z,14.01
2023-09-17T04:08:21.000Z,14.21
2023-09-17T04:10:47.951Z,14.28
2023-09-17T04:13:14.986Z,14.37
2023-09-17T04:15:41.863Z,14.60
2023-09-17T04:18:08.808Z,14.57
2023-09-17T04:20:35.854Z,14.59
2023-09-17T04:23:02.929Z,14.60
2023-09-17T04:25:30.015Z,14.71
2023-09-17T04:27:57.066Z,14.80
2023-09-17T04:30:23.988Z,14.77
2023-09-17T04:32:53.012Z,14.93
2023-09-17T04:35:20.120Z,14.99
2023-09-17T04:37:49.364Z,15.08
2023-09-17T04:40:17.505Z,14.99
2023-09-17T04:42:45.260Z,15.05
2023-09-17T04:45:12.862Z,14.97
2023-09-17T04:47:40.821Z,15.07
2023-09-17T04:50:09.637Z,15.20
2023-09-17T04:52:37.680Z,15.15
2023-09-17T04:55:06.432Z,15.09
2023-09-17T04:57:33.497Z,15.19
2023-09-17T05:00:01.987Z,15.31
2023-09-17T05:02:29.028Z,15.30
2023-09-17T05:04:56.342Z,15.28
2023-09-17T05:07:23.292Z,15.45
2023-09-17T05:09:50.261Z,15.40
2023-09-17T05:12:17.253Z,15.29
2023-09-17T05:14:44.157Z,15.42
2023-09-17T05:17:11.120Z,15.61
2023-09-17T05:19:38.243Z,15.71
2023-09-17T05:22:05.193Z,15.61
2023-09-17T05:24:32.123Z,15.69
2023-09-17T05:26:59.329Z,15.55
2023-09-17T05:29:26.393Z,15.49
2023-09-17T05:31:53.545Z,15.66
2023-09-17T05:34:20.709Z,15.87
2023-09-17T05:36:47.688Z,16.17
2023-09-17T05:39:14.582Z,16.20
2023-09-17T05:41:41.701Z,16.21
2023-09-17T05:44:08.726Z,16.48
2023-09-17T05:46:35.708Z,16.43
2023-09-17T05:49:02.686Z,16.64
2023-09-17T05:51:29.590Z,16.61
2023-09-17T05:53:56.593Z,16.99
2023-09-17T05:56:23.578Z,16.97
2023-09-17T05:58:50.542Z,17.08
2023-09-17T06:01:17.549Z,17.01
2023-09-17T06:03:44.642Z,17.08
2023-09-17T06:06:11.646Z,16.99
2023-09-17T06:08:38.598Z,17.03
2023-09-17T06:11:05.553Z,16.97
2023-09-17T06:13:32.485Z,17.35
2023-09-17T06:15:59.837Z,17.40
2023-09-17T06:18:26.830Z,17.75
2023-09-17T06:20:53.776Z,18.01
2023-09-17T06:23:20.651Z,18.02
2023-09-17T06:25:47.704Z,17.99
2023-09-17T06:28:14.650Z,18.30
2023-09-17T06:30:42.102Z,18.34
2023-09-17T06:33:09.641Z,18.49
2023-09-17T06:35:36.667Z,18.56
2023-09-17T06:38:03.693Z,18.47
2023-09-17T06:40:31.206Z,18.43
2023-09-17T06:42:58.199Z,17.84
2023-09-17T06:45:25.147Z,17.88
2023-09-17T06:47:52.209Z,17.92
2023-09-17T06:50:22.318Z,17.99
2023-09-17T06:52:49.370Z,18.14
2023-09-17T06:55:16.399Z,18.54
2023-09-17T06:57:43.291Z,18.74
2023-09-17T07:00:10.795Z,18.65
2023-09-17T07:02:37.829Z,18.63
2023-09-17T07:05:05.508Z,18.91
2023-09-17T07:07:32.585Z,19.09
2023-09-17T07:09:59.729Z,19.31
2023-09-17T07:12:26.667Z,19.56
2023-09-17T07:14:53.664Z,19.14
2023-09-17T07:17:20.635Z,19.34
2023-09-17T07:19:47.781Z,19.63
2023-09-17T07:22:14.825Z,19.55
2023-09-17T07:24:42.951Z,19.39
2023-09-17T07:27:09.922Z,19.40
2023-09-17T07:29:36.848Z,19.67
2023-09-17T07:32:04.208Z,19.63
2023-09-17T07:34:31.215Z,19.55
2023-09-17T07:36:58.185Z,19.65
2023-09-17T07:39:25.228Z,20.08
2023-09-17T07:41:52.155Z,20.26
2023-09-17T07:44:19.102Z,20.56
2023-09-17T07:46:46.192Z,20.26
2023-09-17T07:49:13.136Z,20.46
2023-09-17T07:51:40.062Z,20.93
2023-09-17T07:54:07.499Z,21.51
2023-09-17T07:56:34.440Z,21.43
2023-09-17T07:59:01.426Z,20.96
2023-09-17T08:01:28.570Z,20.77
2023-09-17T08:03:55.797Z,20.73
2023-09-17T08:06:23.064Z,21.03
2023-09-17T08:08:50.030Z,20.95
2023-09-17T08:11:17.221Z,20.40
2023-09-17T08:13:44.277Z,20.36
2023-09-17T08:16:11.420Z,20.40
2023-09-17T08:18:38.341Z,20.46
2023-09-17T08:21:05.376Z,20.49
2023-09-17T08:23:32.918Z,20.56
2023-09-17T08:26:02.242Z,20.68
2023-09-17T08:28:29.359Z,20.50
2023-09-17T08:30:56.430Z,20.73
2023-09-17T08:33:23.388Z,20.85
2023-09-17T08:35:50.415Z,21.11
2023-09-17T08:38:17.488Z,20.88
2023-09-17T08:40:44.764Z,20.94
2023-09-17T08:43:12.108Z,20.93
2023-09-17T08:45:39.240Z,21.40
2023-09-17T08:48:06.632Z,21.48
2023-09-17T08:50:36.522Z,21.38
2023-09-17T08:53:08.106Z,21.50
2023-09-17T08:55:35.443Z,21.23
2023-09-17T08:58:14.875Z,21.03
2023-09-17T09:00:50.067Z,21.30
2023-09-17T09:03:20.948Z,21.67
2023-09-17T09:05:49.298Z,21.68
2023-09-17T09:08:17.156Z,21.75
2023-09-17T09:10:47.549Z,21.95
2023-09-17T09:13:14.738Z,22.08
2023-09-17T09:15:42.668Z,22.02
2023-09-17T09:18:11.630Z,22.14
2023-09-17T09:20:42.574Z,22.01
2023-09-17T09:23:09.657Z,21.81
2023-09-17T09:25:36.682Z,21.96
2023-09-17T09:28:03.714Z,21.93
2023-09-17T09:30:31.167Z,21.90
2023-09-17T09:32:58.584Z,21.67
2023-09-17T09:35:26.661Z,21.83
2023-09-17T09:37:54.207Z,22.18
2023-09-17T09:40:21.407Z,22.28
2023-09-17T09:42:48.437Z,22.17
2023-09-17T09:45:15.633Z,22.02
2023-09-17T09:47:47.944Z,21.88
2023-09-17T09:50:29.355Z,22.29
2023-09-17T09:52:56.464Z,22.40
2023-09-17T09:55:27.060Z,22.30
2023-09-17T09:57:54.630Z,22.36
2023-09-17T10:00:31.421Z,22.81
2023-09-17T10:02:58.578Z,22.46
2023-09-17T10:05:35.761Z,22.77
2023-09-17T10:08:03.240Z,22.72
2023-09-17T10:10:30.830Z,22.72
2023-09-17T10:12:58.370Z,23.03
2023-09-17T10:15:28.040Z,23.01
2023-09-17T10:17:57.878Z,22.94
2023-09-17T10:20:27.612Z,23.05
2023-09-17T10:22:55.170Z,23.27
2023-09-17T10:25:23.623Z,23.48
2023-09-17T10:27:53.395Z,23.35
2023-09-17T10:30:21.343Z,23.35
2023-09-17T10:32:50.145Z,23.59
2023-09-17T10:35:17.230Z,23.70
2023-09-17T10:37:45.351Z,23.70
2023-09-17T10:40:14.473Z,23.36
2023-09-17T10:42:41.494Z,23.48
2023-09-17T10:45:11.137Z,23.55
2023-09-17T10:47:40.361Z,23.73
2023-09-17T10:50:08.944Z,23.65
2023-09-17T10:52:38.828Z,23.53
2023-09-17T10:55:06.031Z,23.62
2023-09-17T10:57:40.704Z,23.49
2023-09-17T11:00:12.683Z,23.45
2023-09-17T11:02:43.376Z,23.62
2023-09-17T11:05:13.942Z,23.50
2023-09-17T11:07:43.586Z,23.57
2023-09-17T11:10:29.474Z,24.05
2023-09-17T11:12:59.210Z,24.59
2023-09-17T11:15:26.592Z,24.22
2023-09-17T11:17:59.548Z,24.01
2023-09-17T11:20:26.963Z,23.72
2023-09-17T11:22:54.272Z,23.65
2023-09-17T11:25:38.663Z,23.82
2023-09-17T11:28:13.291Z,24.03
2023-09-17T11:31:15.911Z,24.10
2023-09-17T11:33:43.808Z,24.14
2023-09-17T11:36:11.647Z,24.14
2023-09-17T11:38:38.797Z,24.28
2023-09-17T11:41:11.270Z,24.38
2023-09-17T11:43:48.120Z,24.08
2023-09-17T11:46:16.422Z,24.42
2023-09-17T11:48:43.853Z,24.56
2023-09-17T11:51:28.222Z,24.73
2023-09-17T11:54:08.713Z,24.24
2023-09-17T11:56:45.624Z,23.98
2023-09-17T11:59:12.721Z,24.37
2023-09-17T12:01:45.112Z,24.68
2023-09-17T12:04:13.523Z,24.74
2023-09-17T12:06:45.422Z,24.76
2023-09-17T12:09:12.709Z,24.53
2023-09-17T12:11:39.727Z,24.77
2023-09-17T12:14:06.981Z,25.28
2023-09-17T12:16:34.237Z,25.15
2023-09-17T12:19:15.837Z,25.15
2023-09-17T12:21:47.401Z,25.28
2023-09-17T12:24:27.480Z,25.38
2023-09-17T12:27:21.089Z,25.21
2023-09-17T12:29:48.169Z,24.74
2023-09-17T12:32:16.935Z,24.81
2023-09-17T12:34:44.073Z,24.78
2023-09-17T12:37:11.104Z,24.93
2023-09-17T12:39:38.277Z,24.92
2023-09-17T12:42:05.402Z,25.25
2023-09-17T12:44:32.452Z,25.18
2023-09-17T12:47:00.224Z,25.32
2023-09-17T12:49:27.326Z,25.36
2023-09-17T12:51:54.361Z,25.23
2023-09-17T12:54:21.358Z,25.35
2023-09-17T12:56:52.283Z,25.30
2023-09-17T12:59:36.847Z,25.07
2023-09-17T13:02:05.707Z,24.78
2023-09-17T13:04:43.701Z,24.57
2023-09-17T13:07:21.435Z,24.53
2023-09-17T13:09:50.198Z,24.47
2023-09-17T13:12:21.212Z,24.74
2023-09-17T13:14:49.557Z,24.98
2023-09-17T13:17:17.016Z,25.08
2023-09-17T13:19:44.480Z,25.10
2023-09-17T13:22:11.815Z,25.49
2023-09-17T13:24:41.261Z,24.81
2023-09-17T13:27:11.130Z,24.97
2023-09-17T13:29:41.107Z,24.84
2023-09-17T13:32:10.110Z,24.77
2023-09-17T13:34:43.767Z,25.17
2023-09-17T13:37:11.944Z,25.60
2023-09-17T13:39:43.302Z,25.84
2023-09-17T13:42:10.656Z,25.30
2023-09-17T13:44:37.826Z,24.98
2023-09-17T13:47:08.720Z,24.84
2023-09-17T13:49:35.818Z,24.96
2023-09-17T13:52:02.759Z,24.84
2023-09-17T13:54:29.705Z,24.98
2023-09-17T13:56:56.733Z,24.99
2023-09-17T13:59:23.669Z,24.74
2023-09-17T14:01:50.772Z,24.41
2023-09-17T14:04:17.913Z,24.45
2023-09-17T14:06:44.847Z,24.59
2023-09-17T14:09:11.946Z,24.50
2023-09-17T14:11:38.956Z,24.47
2023-09-17T14:14:05.972Z,24.52
2023-09-17T14:16:33.011Z,24.82
2023-09-17T14:19:00.145Z,25.01
2023-09-17T14:21:27.225Z,24.92
2023-09-17T14:23:54.148Z,24.85
2023-09-17T14:26:21.294Z,24.71
2023-09-17T14:28:48.475Z,24.78
2023-09-17T14:31:15.457Z,24.79
2023-09-17T14:33:42.555Z,24.52
2023-09-17T14:36:09.569Z,24.52
2023-09-17T14:38:36.967Z,24.30
2023-09-17T14:41:04.029Z,24.39
2023-09-17T14:43:31.027Z,24.64
2023-09-17T14:45:59.103Z,24.63
2023-09-17T14:48:26.142Z,24.55
2023-09-17T14:50:54.262Z,24.25
2023-09-17T14:53:21.422Z,24.12
2023-09-17T14:55:48.558Z,24.02
2023-09-17T14:58:15.602Z,24.00
2023-09-17T15:00:42.701Z,24.04
2023-09-17T15:03:10.020Z,24.02
2023-09-17T15:05:37.153Z,23.97
2023-09-17T15:08:04.501Z,23.86
2023-09-17T15:10:32.288Z,23.55
2023-09-17T15:13:01.660Z,23.23
2023-09-17T15:15:28.793Z,22.96
2023-09-17T15:17:55.919Z,22.70
2023-09-17T15:20:23.668Z,22.64
2023-09-17T15:22:50.743Z,22.54
2023-09-17T15:25:18.406Z,22.42
2023-09-17T15:27:45.495Z,22.34
2023-09-17T15:30:12.769Z,22.27
2023-09-17T15:32:40.791Z,22.15
2023-09-17T15:35:08.392Z,22.08
2023-09-17T15:37:35.455Z,22.01
2023-09-17T15:40:02.471Z,21.95
2023-09-17T15:42:29.420Z,21.87
2023-09-17T15:44:56.334Z,21.75
2023-09-17T15:47:23.662Z,21.68
2023-09-17T15:49:50.811Z,21.59
2023-09-17T15:52:17.800Z,21.60
2023-09-17T15:54:44.971Z,21.61
2023-09-17T15:57:13.281Z,21.61
2023-09-17T15:59:40.797Z,21.55
2023-09-17T16:02:07.967Z,21.50
2023-09-17T16:04:34.992Z,21.58
2023-09-17T16:07:03.127Z,21.62
2023-09-17T16:09:30.514Z,21.59
2023-09-17T16:11:57.445Z,21.48
2023-09-17T16:14:24.945Z,21.39
2023-09-17T16:16:52.312Z,21.37
2023-09-17T16:19:21.470Z,21.42
2023-09-17T16:21:48.921Z,21.46
2023-09-17T16:24:16.221Z,21.33
2023-09-17T16:26:43.174Z,21.39
2023-09-17T16:29:10.217Z,21.42
2023-09-17T16:31:37.354Z,21.43
2023-09-17T16:34:04.453Z,21.58
2023-09-17T16:36:31.527Z,21.45
2023-09-17T16:38:59.847Z,21.28
2023-09-17T16:41:27.178Z,21.23
2023-09-17T16:43:54.405Z,21.22
2023-09-17T16:46:21.824Z,21.11
2023-09-17T16:48:48.831Z,21.04
2023-09-17T16:51:16.292Z,20.94
2023-09-17T16:53:43.335Z,20.95
2023-09-17T16:56:10.646Z,20.95
2023-09-17T16:58:40.383Z,20.83
2023-09-17T17:01:07.674Z,20.89
2023-09-17T17:03:34.870Z,20.98
2023-09-17T17:06:02.423Z,20.86
2023-09-17T17:08:29.596Z,20.81
2023-09-17T17:10:57.135Z,20.92
2023-09-17T17:13:24.188Z,20.78
2023-09-17T17:15:51.315Z,20.69
2023-09-17T17:18:18.479Z,20.57
2023-09-17T17:20:45.552Z,20.72
2023-09-17T17:23:14.255Z,20.58
2023-09-17T17:25:43.372Z,20.51
2023-09-17T17:28:14.703Z,20.53
2023-09-17T17:30:42.753Z,20.59
2023-09-17T17:33:09.823Z,20.40
2023-09-17T17:35:36.792Z,20.26
2023-09-17T17:38:04.045Z,20.12
2023-09-17T17:40:33.686Z,20.02
2023-09-17T17:43:01.074Z,19.80
2023-09-17T17:45:30.824Z,19.72
2023-09-17T17:47:57.879Z,19.50
2023-09-17T17:50:24.948Z,19.55
2023-09-17T17:52:53.120Z,19.58
2023-09-17T17:55:22.720Z,19.66
2023-09-17T17:57:49.891Z,19.60
2023-09-17T18:00:17.064Z,19.63
2023-09-17T18:02:47.078Z,19.59
2023-09-17T18:05:15.561Z,19.51
2023-09-17T18:07:43.008Z,19.48
2023-09-17T18:10:10.814Z,19.40
2023-09-17T18:12:39.075Z,19.37
2023-09-17T18:15:10.539Z,19.42
2023-09-17T18:17:39.284Z,19.33
2023-09-17T18:20:06.893Z,19.26
2023-09-17T18:22:34.119Z,19.24
2023-09-17T18:25:01.141Z,19.13
2023-09-17T18:27:29.930Z,19.21
2023-09-17T18:29:57.932Z,19.19
2023-09-17T18:32:26.295Z,19.15
2023-09-17T18:34:54.942Z,19.13
2023-09-17T18:37:22.365Z,19.14
2023-09-17T18:39:49.727Z,18.88
2023-09-17T18:42:18.720Z,18.81
2023-09-17T18:44:45.872Z,18.82
2023-09-17T18:47:13.120Z,18.77
2023-09-17T18:49:40.260Z,18.74
2023-09-17T18:52:07.917Z,18.75
2023-09-17T18:54:34.973Z,18.73
2023-09-17T18:57:02.009Z,18.52
2023-09-17T18:59:29.752Z,18.46
2023-09-17T19:01:58.104Z,18.41
2023-09-17T19:04:27.026Z,18.35
2023-09-17T19:06:58.320Z,18.31
2023-09-17T19:09:25.883Z,18.15
2023-09-17T19:11:53.274Z,18.03
2023-09-17T19:14:20.420Z,18.01
2023-09-17T19:16:47.861Z,18.05
2023-09-17T19:19:15.198Z,17.98
2023-09-17T19:21:42.247Z,17.78
2023-09-17T19:24:10.066Z,17.71
2023-09-17T19:26:38.139Z,17.66
2023-09-17T19:29:05.853Z,17.61
2023-09-17T19:31:33.124Z,17.63
2023-09-17T19:34:01.642Z,17.67
2023-09-17T19:36:29.014Z,17.71
2023-09-17T19:38:56.184Z,17.67
2023-09-17T19:41:23.297Z,17.55
2023-09-17T19:43:50.938Z,17.53
2023-09-17T19:46:19.299Z,17.44
2023-09-17T19:48:48.883Z,17.39
2023-09-17T19:51:16.420Z,17.42
2023-09-17T19:53:43.819Z,17.29
2023-09-17T19:56:11.993Z,17.28
2023-09-17T19:58:39.921Z,17.31
2023-09-17T20:01:07.092Z,17.38
2023-09-17T20:03:34.758Z,17.49
2023-09-17T20:06:02.378Z,17.45
2023-09-17T20:08:29.396Z,17.33
2023-09-17T20:10:57.110Z,17.23
2023-09-17T20:13:24.310Z,17.16
2023-09-17T20:15:51.490Z,17.09
2023-09-17T20:18:19.484Z,17.07
2023-09-17T20:20:46.680Z,17.02
2023-09-17T20:23:14.451Z,16.94
2023-09-17T20:25:41.835Z,16.85
2023-09-17T20:28:08.832Z,16.74
2023-09-17T20:30:39.356Z,16.66
2023-09-17T20:33:07.933Z,16.60
2023-09-17T20:35:35.652Z,16.53
2023-09-17T20:38:02.582Z,16.50
2023-09-17T20:40:30.603Z,16.42
2023-09-17T20:42:57.960Z,16.37
2023-09-17T20:45:25.008Z,16.38
2023-09-17T20:47:52.997Z,16.27
2023-09-17T20:50:20.377Z,16.27
2023-09-17T20:52:47.863Z,16.22
2023-09-17T20:55:14.910Z,16.22
2023-09-17T20:57:42.543Z,16.22
2023-09-17T21:00:10.091Z,16.30
2023-09-17T21:02:37.114Z,16.28
2023-09-17T21:05:04.586Z,16.16
2023-09-17T21:07:31.746Z,16.06
2023-09-17T21:09:59.392Z,15.97
2023-09-17T21:12:26.826Z,15.94
2023-09-17T21:14:53.791Z,15.87
2023-09-17T21:17:20.916Z,15.83
2023-09-17T21:19:48.025Z,15.92
2023-09-17T21:22:15.680Z,15.85
2023-09-17T21:24:42.648Z,15.84
2023-09-17T21:27:09.770Z,15.79
2023-09-17T21:29:36.703Z,15.76
2023-09-17T21:32:04.493Z,15.65
2023-09-17T21:34:31.701Z,15.66
2023-09-17T21:36:58.769Z,15.58
2023-09-17T21:39:26.326Z,15.47
2023-09-17T21:41:53.389Z,15.45
2023-09-17T21:44:20.366Z,15.44
2023-09-17T21:46:47.371Z,15.26
2023-09-17T21:49:14.402Z,15.32
2023-09-17T21:51:41.249Z,15.20
2023-09-17T21:54:08.220Z,15.08
2023-09-17T21:56:35.330Z,15.01
2023-09-17T21:59:02.329Z,14.94
2023-09-17T22:01:29.295Z,14.89
2023-09-17T22:03:56.472Z,14.86
2023-09-17T22:06:23.448Z,14.77
2023-09-17T22:08:50.686Z,14.80
2023-09-17T22:11:17.774Z,14.71
2023-09-17T22:13:44.702Z,14.75
2023-09-17T22:16:11.644Z,14.68
2023-09-17T22:18:38.653Z,14.66
2023-09-17T22:21:06.955Z,14.60
2023-09-17T22:23:35.033Z,14.67
2023-09-17T22:26:05.001Z,14.60
2023-09-17T22:28:32.033Z,14.55
2023-09-17T22:31:08.547Z,14.49
2023-09-17T22:33:35.505Z,14.45
2023-09-17T22:36:06.683Z,14.42
2023-09-17T22:38:33.719Z,14.40
2023-09-17T22:41:00.671Z,14.40
2023-09-17T22:43:27.583Z,14.24
2023-09-17T22:45:54.651Z,14.17
2023-09-17T22:48:21.590Z,14.10
2023-09-17T22:50:48.525Z,14.16
2023-09-17T22:53:15.512Z,14.16
2023-09-17T22:55:42.409Z,14.16
2023-09-17T22:58:09.270Z,14.14
2023-09-17T23:00:36.314Z,14.03
2023-09-17T23:03:03.381Z,14.06
2023-09-17T23:05:30.491Z,13.98
2023-09-17T23:07:57.612Z,14.01
2023-09-17T23:10:24.557Z,13.87
2023-09-17T23:12:51.450Z,13.85
2023-09-17T23:15:18.467Z,13.76
2023-09-17T23:17:45.375Z,13.65
2023-09-17T23:20:12.405Z,13.62
2023-09-17T23:22:39.423Z,13.56
2023-09-17T23:25:06.745Z,13.59
2023-09-17T23:27:33.682Z,13.56
2023-09-17T23:30:01.245Z,13.49
2023-09-17T23:32:28.340Z,13.57
2023-09-17T23:34:55.418Z,13.56
2023-09-17T23:37:22.712Z,13.58
2023-09-17T23:39:49.744Z,13.49
2023-09-17T23:42:16.662Z,13.46
2023-09-17T23:44:43.670Z,13.44
2023-09-17T23:47:10.653Z,13.38
2023-09-17T23:49:37.593Z,13.30
2023-09-17T23:52:04.847Z,13.18
2023-09-17T23:54:31.795Z,13.23
2023-09-17T23:56:58.722Z,13.25
2023-09-17T23:59:25.982Z,13.08
